Time;durP1;ratioP1;P1;durP2;ratioP2;P2;SDS_P1;SDS_P2;PMS_P1;PMS_P2;Temp;Humidity;BMP_temperature;BMP_pressure;BME280_temperature;BME280_humidity;BME280_pressure;Samples;Min_cycle;Max_cycle;Signal;HPM_P1;HPM_P2
2023/06/28 00:01:36;;;;;;;7.40;5.80;;;;;;;15.87;100.00;100549.44;109878;1238;65071;-67
2023/06/28 00:04:06;;;;;;;6.40;5.70;;;;;;;15.85;100.00;100549.02;109806;1241;71463;-67
2023/06/28 00:06:35;;;;;;;7.00;5.80;;;;;;;15.87;100.00;100548.96;109821;1238;70127;-67
2023/06/28 00:09:03;;;;;;;9.40;6.00;;;;;;;15.85;100.00;100546.19;109869;1238;74176;-67
2023/06/28 00:11:32;;;;;;;8.20;6.60;;;;;;;15.84;100.00;100543.05;109870;1238;57839;-67
2023/06/28 00:14:01;;;;;;;7.10;5.80;;;;;;;15.89;100.00;100545.38;109829;1239;57615;-67
2023/06/28 00:16:30;;;;;;;7.10;5.70;;;;;;;15.92;100.00;100545.44;109880;1238;71291;-66
2023/06/28 00:19:00;;;;;;;8.90;5.70;;;;;;;15.94;100.00;100541.61;109861;1237;72073;-66
2023/06/28 00:21:29;;;;;;;8.80;6.40;;;;;;;15.96;100.00;100539.45;109817;1238;60950;-66
2023/06/28 00:24:00;;;;;;;6.80;5.40;;;;;;;15.96;100.00;100533.83;109899;1238;71758;-66
2023/06/28 00:26:28;;;;;;;6.90;5.40;;;;;;;15.95;100.00;100533.98;109857;1238;63397;-65
2023/06/28 00:28:57;;;;;;;6.80;6.10;;;;;;;15.96;100.00;100532.27;109773;1238;58272;-66
2023/06/28 00:31:26;;;;;;;8.40;5.80;;;;;;;15.98;100.00;100529.75;109694;1241;63768;-66
2023/06/28 00:33:57;;;;;;;7.20;5.50;;;;;;;15.98;100.00;100526.26;109719;1238;71469;-66
2023/06/28 00:36:25;;;;;;;8.00;6.70;;;;;;;15.98;100.00;100525.93;109712;1238;70010;-65
2023/06/28 00:38:54;;;;;;;8.20;6.20;;;;;;;15.99;100.00;100524.39;109754;1241;63689;-67
2023/06/28 00:41:23;;;;;;;8.60;5.80;;;;;;;16.00;100.00;100528.86;109774;1238;60692;-65
2023/06/28 00:43:52;;;;;;;7.00;5.40;;;;;;;16.01;100.00;100527.94;109801;1238;61792;-67
2023/06/28 00:46:20;;;;;;;7.80;6.10;;;;;;;16.01;100.00;100524.05;109876;1238;74818;-66
2023/06/28 00:48:49;;;;;;;6.50;5.80;;;;;;;16.00;100.00;100517.52;109807;1238;62286;-65
2023/06/28 00:51:19;;;;;;;7.00;5.60;;;;;;;15.99;100.00;100516.18;109921;1238;70390;-69
2023/06/28 00:53:49;;;;;;;7.50;5.80;;;;;;;16.03;100.00;100517.86;109789;1241;73899;-67
2023/06/28 00:56:18;;;;;;;7.10;6.00;;;;;;;16.10;100.00;100515.44;109903;1238;62659;-67
2023/06/28 00:58:47;;;;;;;7.50;5.90;;;;;;;16.11;100.00;100517.23;109719;1238;61668;-67
2023/06/28 01:01:16;;;;;;;7.70;5.60;;;;;;;16.11;100.00;100518.26;109649;1238;75008;-67
2023/06/28 01:03:50;;;;;;;7.90;5.10;;;;;;;16.07;100.00;100515.58;109937;1239;72552;-68
2023/06/28 01:06:21;;;;;;;10.30;5.60;;;;;;;16.03;100.00;100507.15;109767;1241;60409;-67
2023/06/28 01:08:51;;;;;;;6.90;4.60;;;;;;;16.02;100.00;100508.13;109795;1238;73907;-68
2023/06/28 01:11:20;;;;;;;7.50;6.00;;;;;;;15.97;100.00;100508.48;109915;1241;58554;-67
2023/06/28 01:13:49;;;;;;;7.60;5.50;;;;;;;15.94;100.00;100513.21;109777;1241;58303;-67
2023/06/28 01:16:18;;;;;;;6.90;5.70;;;;;;;15.94;100.00;100515.25;109697;1239;74775;-68
2023/06/28 01:18:47;;;;;;;8.00;5.80;;;;;;;15.93;100.00;100517.48;109685;1238;61937;-68
2023/06/28 01:21:18;;;;;;;7.30;5.70;;;;;;;15.90;100.00;100525.60;109662;1238;59295;-68
2023/06/28 01:23:48;;;;;;;9.30;6.10;;;;;;;15.89;100.00;100539.91;109654;1239;72893;-68
2023/06/28 01:26:18;;;;;;;8.00;5.80;;;;;;;15.89;100.00;100545.02;109743;1241;62883;-68
2023/06/28 01:28:48;;;;;;;6.60;5.70;;;;;;;15.86;100.00;100544.46;109930;1238;58337;-68
2023/06/28 01:31:17;;;;;;;7.30;6.00;;;;;;;15.85;100.00;100543.16;109791;1239;75712;-67
2023/06/28 01:33:48;;;;;;;7.00;5.40;;;;;;;15.84;100.00;100539.90;109910;1238;72620;-67
2023/06/28 01:36:16;;;;;;;7.60;6.10;;;;;;;15.86;100.00;100547.59;109868;1239;70136;-67
2023/06/28 01:38:45;;;;;;;8.30;6.10;;;;;;;15.89;100.00;100550.86;109783;1238;65297;-68
2023/06/28 01:41:15;;;;;;;7.80;6.70;;;;;;;15.91;100.00;100546.77;109796;1241;57812;-68
2023/06/28 01:43:44;;;;;;;7.10;6.00;;;;;;;15.93;100.00;100543.80;109867;1241;58252;-68
2023/06/28 01:46:13;;;;;;;7.50;6.00;;;;;;;15.94;100.00;100544.54;109927;1241;62963;-68
2023/06/28 01:48:43;;;;;;;7.70;6.20;;;;;;;15.97;100.00;100544.13;109956;1241;61674;-68
2023/06/28 01:51:12;;;;;;;8.30;5.90;;;;;;;16.02;100.00;100543.98;110078;1238;60036;-68
2023/06/28 01:53:43;;;;;;;6.60;5.50;;;;;;;16.20;100.00;100548.51;109803;1238;62503;-68
2023/06/28 01:56:11;;;;;;;9.10;6.30;;;;;;;16.23;100.00;100555.41;109690;1241;379575;-67
2023/06/28 01:58:40;;;;;;;7.90;6.10;;;;;;;16.35;100.00;100564.25;110009;1241;58441;-68
2023/06/28 02:01:09;;;;;;;10.30;6.10;;;;;;;16.43;100.00;100562.47;110013;1241;63025;-68
2023/06/28 02:03:38;;;;;;;7.40;5.30;;;;;;;16.59;100.00;100565.73;109865;1243;61795;-68
2023/06/28 02:06:08;;;;;;;9.30;6.30;;;;;;;16.62;100.00;100567.36;110130;1238;60004;-67
2023/06/28 02:08:37;;;;;;;9.00;5.80;;;;;;;16.60;100.00;100563.83;110082;1238;63229;-67
2023/06/28 02:11:06;;;;;;;10.40;6.40;;;;;;;16.53;100.00;100566.12;110059;1239;57824;-67
2023/06/28 02:13:35;;;;;;;8.90;5.80;;;;;;;16.59;100.00;100570.52;110048;1239;59957;-67
2023/06/28 02:16:03;;;;;;;7.80;5.70;;;;;;;16.51;100.00;100569.52;110016;1238;65382;-69
2023/06/28 02:18:34;;;;;;;6.80;4.80;;;;;;;16.51;100.00;100575.19;110015;1238;71570;-69
2023/06/28 02:21:03;;;;;;;7.00;5.50;;;;;;;16.42;100.00;100582.36;110104;1239;59681;-67
2023/06/28 02:23:32;;;;;;;6.90;5.20;;;;;;;16.34;100.00;100585.23;110079;1240;63299;-67
2023/06/28 02:26:01;;;;;;;5.90;4.90;;;;;;;16.28;100.00;100587.11;110039;1239;62873;-67
2023/06/28 02:28:30;;;;;;;8.00;4.60;;;;;;;16.20;100.00;100589.42;110061;1238;62209;-67
2023/06/28 02:30:58;;;;;;;7.80;5.10;;;;;;;16.12;100.00;100593.08;110048;1238;75514;-67
2023/06/28 02:33:27;;;;;;;8.20;4.80;;;;;;;16.02;100.00;100596.13;109975;1238;71477;-66
2023/06/28 02:35:56;;;;;;;8.90;5.90;;;;;;;16.00;100.00;100590.02;109994;1241;59760;-68
2023/06/28 02:38:25;;;;;;;7.20;4.80;;;;;;;15.95;100.00;100585.60;110076;1239;63287;-68
2023/06/28 02:40:54;;;;;;;6.70;5.70;;;;;;;16.02;100.00;100586.25;110078;1240;63014;-68
2023/06/28 02:43:22;;;;;;;8.70;7.00;;;;;;;16.01;100.00;100585.92;109967;1241;60741;-68
2023/06/28 02:45:51;;;;;;;7.70;5.50;;;;;;;15.97;100.00;100584.38;110083;1241;63638;-67
2023/06/28 02:48:20;;;;;;;8.30;6.30;;;;;;;15.97;100.00;100584.02;110119;1239;61694;-67
2023/06/28 02:50:49;;;;;;;7.30;6.30;;;;;;;15.98;100.00;100584.94;110091;1238;70432;-67
2023/06/28 02:53:17;;;;;;;9.80;7.60;;;;;;;15.99;100.00;100579.86;109954;1238;74879;-67
2023/06/28 02:55:46;;;;;;;10.10;6.80;;;;;;;16.25;100.00;100582.78;109915;1239;62560;-67
2023/06/28 02:58:16;;;;;;;8.80;5.80;;;;;;;16.26;100.00;100586.60;110052;1238;58314;-67
2023/06/28 03:00:46;;;;;;;8.50;5.80;;;;;;;16.33;100.00;100595.34;109990;1237;74163;-67
2023/06/28 03:03:17;;;;;;;8.50;6.30;;;;;;;16.37;100.00;100595.80;109958;1238;71524;-67
2023/06/28 03:05:46;;;;;;;11.00;6.00;;;;;;;16.34;100.00;100602.30;109956;1241;59928;-68
2023/06/28 03:08:15;;;;;;;8.00;6.80;;;;;;;16.28;100.00;100599.58;109991;1241;63250;-68
2023/06/28 03:10:44;;;;;;;7.40;6.00;;;;;;;16.33;100.00;100600.17;109784;1241;58344;-68
2023/06/28 03:13:13;;;;;;;6.00;5.00;;;;;;;16.37;100.00;100605.52;109793;1241;60350;-68
2023/06/28 03:15:42;;;;;;;9.30;6.50;;;;;;;16.27;100.00;100614.58;109809;1241;64368;-67
2023/06/28 03:18:13;;;;;;;7.80;5.10;;;;;;;16.20;100.00;100616.59;109886;1241;60957;-66
2023/06/28 03:20:42;;;;;;;5.70;5.10;;;;;;;16.22;100.00;100614.04;109933;1241;59817;-65
2023/06/28 03:23:11;;;;;;;8.70;6.50;;;;;;;16.13;100.00;100608.52;109972;1238;73883;-65
2023/06/28 03:25:40;;;;;;;7.00;5.40;;;;;;;16.15;100.00;100602.73;109986;1241;57811;-65
2023/06/28 03:28:10;;;;;;;7.60;5.80;;;;;;;16.19;100.00;100604.69;109971;1239;58398;-65
2023/06/28 03:30:39;;;;;;;5.90;5.30;;;;;;;16.22;100.00;100603.46;109987;1239;63860;-66
2023/06/28 03:33:08;;;;;;;8.60;5.60;;;;;;;16.16;100.00;100595.11;109940;1239;60876;-67
2023/06/28 03:35:37;;;;;;;9.30;6.40;;;;;;;16.09;100.00;100582.46;110097;1238;59153;-66
2023/06/28 03:38:06;;;;;;;8.00;6.40;;;;;;;16.12;100.00;100563.16;109950;1238;73931;-63
2023/06/28 03:40:36;;;;;;;8.00;7.10;;;;;;;16.30;100.00;100549.45;110001;1239;63337;-62
2023/06/28 03:43:05;;;;;;;10.30;8.00;;;;;;;16.43;100.00;100556.23;110039;1238;58289;-64
2023/06/28 03:45:34;;;;;;;8.90;7.20;;;;;;;16.52;100.00;100580.12;109829;1237;74959;-63
2023/06/28 03:48:04;;;;;;;7.80;6.10;;;;;;;16.57;100.00;100586.30;109985;1239;62434;-64
2023/06/28 03:50:32;;;;;;;7.90;5.60;;;;;;;16.50;100.00;100585.14;109995;1238;70445;-64
2023/06/28 03:53:01;;;;;;;7.00;5.60;;;;;;;16.39;100.00;100589.98;109957;1241;74236;-66
2023/06/28 03:55:31;;;;;;;8.10;5.90;;;;;;;16.31;100.00;100589.13;109973;1238;64312;-62
2023/06/28 03:58:03;;;;;;;7.50;5.50;;;;;;;16.24;100.00;100596.50;109856;1238;61242;-65
2023/06/28 04:00:33;;;;;;;7.50;5.30;;;;;;;16.21;100.00;100602.67;109729;1238;75338;-64
2023/06/28 04:03:02;;;;;;;10.30;7.00;;;;;;;16.16;100.00;100602.83;109858;1238;63030;-65
2023/06/28 04:05:32;;;;;;;10.50;6.60;;;;;;;16.11;100.00;100600.89;110078;1237;69398;-64
2023/06/28 04:08:02;;;;;;;10.00;6.80;;;;;;;16.09;100.00;100604.92;109958;1237;74151;-64
2023/06/28 04:10:31;;;;;;;12.50;7.70;;;;;;;16.07;100.00;100605.17;110045;1238;63612;-64
2023/06/28 04:12:59;;;;;;;12.60;7.10;;;;;;;16.11;100.00;100602.77;110062;1238;60689;-64
2023/06/28 04:15:28;;;;;;;8.20;6.50;;;;;;;16.16;100.00;100608.64;110051;1238;74106;-63
2023/06/28 04:17:57;;;;;;;9.50;7.40;;;;;;;16.21;100.00;100610.27;110067;1238;62079;-63
2023/06/28 04:20:26;;;;;;;10.20;6.90;;;;;;;16.24;100.00;100610.38;110087;1238;59207;-63
2023/06/28 04:22:55;;;;;;;7.80;6.50;;;;;;;16.25;100.00;100608.97;110032;1237;73221;-64
2023/06/28 04:25:23;;;;;;;11.00;6.40;;;;;;;16.30;100.00;100606.77;109957;1241;63222;-64
2023/06/28 04:27:52;;;;;;;10.10;6.70;;;;;;;16.31;100.00;100608.04;110081;1238;57796;-64
2023/06/28 04:30:21;;;;;;;8.10;6.30;;;;;;;16.39;100.00;100609.77;109997;1237;64373;-72
2023/06/28 04:32:50;;;;;;;8.60;6.80;;;;;;;16.42;100.00;100613.45;109946;1239;61802;-62
2023/06/28 04:35:21;;;;;;;9.50;6.90;;;;;;;16.46;100.00;100612.37;109946;1239;60121;-63
2023/06/28 04:37:50;;;;;;;10.10;7.00;;;;;;;16.53;100.00;100614.17;109703;1241;62543;-62
2023/06/28 04:40:19;;;;;;;10.60;7.00;;;;;;;16.54;100.00;100615.60;109922;1239;58244;-63
2023/06/28 04:42:49;;;;;;;10.50;6.40;;;;;;;16.56;100.00;100616.45;110019;1239;60439;-63
2023/06/28 04:45:18;;;;;;;8.10;7.10;;;;;;;16.67;100.00;100618.38;109961;1238;64149;-64
2023/06/28 04:47:47;;;;;;;11.00;6.70;;;;;;;16.63;100.00;100617.05;109913;1238;61698;-67
2023/06/28 04:50:17;;;;;;;10.00;7.60;;;;;;;16.67;100.00;100613.60;109650;1238;69379;-67
2023/06/28 04:52:47;;;;;;;11.70;7.50;;;;;;;16.78;100.00;100613.09;109603;1238;73571;-67
2023/06/28 04:55:16;;;;;;;9.40;5.40;;;;;;;16.92;100.00;100614.35;109730;1239;63363;-65
2023/06/28 04:57:45;;;;;;;8.00;5.80;;;;;;;16.98;100.00;100620.06;109829;1238;62500;-66
2023/06/28 05:00:15;;;;;;;9.60;6.00;;;;;;;16.91;100.00;100618.26;109549;1238;74812;-64
2023/06/28 05:02:44;;;;;;;10.00;6.30;;;;;;;16.86;100.00;100623.05;109754;1238;72382;-64
2023/06/28 05:05:18;;;;;;;9.40;6.60;;;;;;;16.86;100.00;100621.39;109615;1238;67661;-63
2023/06/28 05:07:46;;;;;;;10.60;6.80;;;;;;;16.95;100.00;100622.97;109628;1241;72785;-64
2023/06/28 05:10:15;;;;;;;8.10;6.10;;;;;;;17.08;100.00;100622.07;109795;1238;58178;-65
2023/06/28 05:12:45;;;;;;;11.90;6.80;;;;;;;17.14;100.00;100619.77;109706;1238;61033;-65
2023/06/28 05:15:13;;;;;;;9.30;5.80;;;;;;;17.25;100.00;100623.27;109798;1238;74049;-63
2023/06/28 05:17:43;;;;;;;9.00;6.30;;;;;;;17.30;100.00;100620.69;109897;1238;71392;-61
2023/06/28 05:20:12;;;;;;;9.80;6.20;;;;;;;17.39;100.00;100620.81;109838;1238;59566;-70
2023/06/28 05:22:48;;;;;;;7.80;5.60;;;;;;;17.53;100.00;100617.11;109949;1238;63312;-63
2023/06/28 05:25:17;;;;;;;8.20;5.40;;;;;;;17.63;100.00;100615.54;109823;1238;57782;-63
2023/06/28 05:27:46;;;;;;;7.30;5.30;;;;;;;17.73;100.00;100611.70;109803;1238;57729;-66
2023/06/28 05:31:55;;;;;;;7.60;5.90;;;;;;;17.73;100.00;100618.11;104591;1279;601307;-63
2023/06/28 05:34:24;;;;;;;12.80;7.10;;;;;;;17.68;100.00;100615.54;107061;1251;59041;-63
2023/06/28 05:36:53;;;;;;;7.10;5.30;;;;;;;17.73;100.00;100614.00;106911;1248;61033;-63
2023/06/28 05:39:22;;;;;;;7.60;6.00;;;;;;;17.95;100.00;100610.30;106910;1257;61836;-63
2023/06/28 05:41:51;;;;;;;10.00;6.60;;;;;;;17.93;100.00;100611.02;106828;1251;61234;-64
2023/06/28 05:44:21;;;;;;;9.40;5.50;;;;;;;17.97;100.00;100614.95;106704;1247;69694;-63
2023/06/28 05:46:50;;;;;;;10.60;6.00;;;;;;;18.05;100.00;100610.85;106602;1252;72507;-64
2023/06/28 05:49:19;;;;;;;10.40;7.00;;;;;;;17.98;100.00;100609.24;106951;1247;63907;-67
2023/06/28 05:51:48;;;;;;;7.80;6.00;;;;;;;18.04;100.00;100610.15;107032;1248;58990;-66
2023/06/28 05:54:17;;;;;;;7.90;6.40;;;;;;;18.14;100.00;100614.94;109352;1245;61661;-67
2023/06/28 05:56:46;;;;;;;9.10;7.10;;;;;;;18.14;100.00;100620.06;107055;1248;61154;-67
2023/06/28 05:59:15;;;;;;;11.80;6.10;;;;;;;18.22;100.00;100626.06;107129;1248;59973;-67
2023/06/28 06:01:44;;;;;;;7.80;5.90;;;;;;;18.40;100.00;100623.48;108338;1247;72178;-66
2023/06/28 06:04:13;;;;;;;7.20;5.40;;;;;;;18.31;100.00;100621.21;107078;1245;58406;-68
2023/06/28 06:06:42;;;;;;;9.40;5.60;;;;;;;18.41;100.00;100620.56;107100;1258;57552;-67
2023/06/28 06:09:11;;;;;;;19.80;7.10;;;;;;;18.45;100.00;100617.61;107127;1244;63254;-68
2023/06/28 06:11:40;;;;;;;14.00;8.70;;;;;;;18.44;100.00;100617.76;107109;1248;61868;-67
2023/06/28 06:14:09;;;;;;;8.70;6.30;;;;;;;18.58;100.00;100616.89;107027;1244;70763;-68
2023/06/28 06:16:38;;;;;;;11.20;5.80;;;;;;;18.76;100.00;100613.99;107041;1248;74836;-66
2023/06/28 06:19:08;;;;;;;7.30;4.50;;;;;;;18.97;100.00;100620.00;106938;1255;63403;-68
2023/06/28 06:21:38;;;;;;;7.50;3.80;;;;;;;19.13;98.45;100620.53;107105;1244;61773;-66
2023/06/28 06:24:09;;;;;;;6.20;3.30;;;;;;;19.19;95.01;100618.27;107083;1244;74123;-68
2023/06/28 06:26:38;;;;;;;14.50;4.40;;;;;;;19.22;93.09;100619.48;106973;1248;72751;-66
2023/06/28 06:29:07;;;;;;;6.00;3.10;;;;;;;19.31;93.20;100626.32;107039;1247;71344;-67
2023/06/28 06:31:37;;;;;;;7.60;3.60;;;;;;;19.35;90.62;100628.36;107081;1254;74589;-66
2023/06/28 06:34:06;;;;;;;10.80;3.70;;;;;;;19.44;89.66;100629.45;107020;1247;59093;-66
2023/06/28 06:36:36;;;;;;;8.10;3.60;;;;;;;19.54;89.21;100627.29;107011;1245;59096;-65
2023/06/28 06:39:05;;;;;;;7.00;3.60;;;;;;;19.60;88.46;100623.44;107048;1254;61403;-67
2023/06/28 06:41:34;;;;;;;7.30;3.40;;;;;;;19.67;88.47;100619.77;107079;1248;61960;-66
2023/06/28 06:44:04;;;;;;;4.20;3.10;;;;;;;19.75;88.75;100623.88;107019;1248;59723;-66
2023/06/28 06:46:33;;;;;;;7.50;3.60;;;;;;;19.81;86.92;100619.48;107086;1248;63581;-66
2023/06/28 06:49:02;;;;;;;5.50;3.40;;;;;;;19.80;87.21;100614.51;107007;1249;58298;-67
2023/06/28 06:51:33;;;;;;;6.00;3.20;;;;;;;19.78;85.67;100613.39;107026;1245;61568;-68
2023/06/28 06:54:02;;;;;;;6.80;3.40;;;;;;;19.82;86.40;100610.66;107079;1248;62554;-68
2023/06/28 06:56:31;;;;;;;10.50;4.20;;;;;;;19.81;86.01;100611.12;107070;1248;60984;-68
2023/06/28 06:59:01;;;;;;;6.70;3.80;;;;;;;19.74;86.74;100609.31;107147;1254;60786;-68
2023/06/28 07:01:32;;;;;;;6.30;3.50;;;;;;;19.84;85.38;100609.26;107226;1248;63222;-66
2023/06/28 07:04:01;;;;;;;5.60;3.40;;;;;;;19.88;84.57;100608.09;107105;1248;59110;-69
2023/06/28 07:06:30;;;;;;;6.60;3.60;;;;;;;19.96;84.37;100610.59;107071;1248;58389;-68
2023/06/28 07:08:59;;;;;;;4.50;2.90;;;;;;;19.92;83.59;100615.11;107047;1248;61617;-68
2023/06/28 07:11:28;;;;;;;7.10;3.10;;;;;;;19.95;83.09;100610.81;107103;1254;72570;-68
2023/06/28 07:13:58;;;;;;;8.70;2.90;;;;;;;20.04;82.35;100615.92;106969;1244;71448;-66
2023/06/28 07:16:27;;;;;;;8.00;3.30;;;;;;;20.12;80.73;100610.77;107062;1248;63854;-67
2023/06/28 07:18:56;;;;;;;5.30;2.70;;;;;;;20.20;80.13;100614.70;107034;1248;60305;-68
2023/06/28 07:21:25;;;;;;;5.00;2.80;;;;;;;20.19;79.39;100618.48;106937;1249;59291;-68
2023/06/28 07:23:55;;;;;;;7.00;2.90;;;;;;;20.31;79.18;100622.59;107113;1248;61593;-67
2023/06/28 07:26:24;;;;;;;8.10;3.20;;;;;;;20.38;78.34;100626.00;107010;1248;60934;-69
2023/06/28 07:28:53;;;;;;;4.70;2.50;;;;;;;20.57;78.03;100615.91;107053;1256;68395;-69
2023/06/28 07:31:22;;;;;;;6.20;3.10;;;;;;;20.75;76.85;100615.46;106941;1255;72357;-69
2023/06/28 07:33:51;;;;;;;6.10;3.30;;;;;;;20.83;76.68;100612.73;107048;1258;59056;-67
2023/06/28 07:36:20;;;;;;;7.20;2.70;;;;;;;20.89;76.59;100608.63;106930;1248;57837;-67
2023/06/28 07:38:50;;;;;;;7.90;3.30;;;;;;;20.94;76.39;100610.88;106712;1252;73583;-67
2023/06/28 07:41:19;;;;;;;6.80;3.20;;;;;;;21.03;75.68;100612.25;106766;1249;62129;-68
2023/06/28 07:43:48;;;;;;;7.20;2.90;;;;;;;21.12;72.54;100609.07;106754;1258;60296;-66
2023/06/28 07:46:17;;;;;;;9.90;3.00;;;;;;;21.27;71.09;100608.57;106936;1258;62335;-66
2023/06/28 07:48:50;;;;;;;5.90;2.90;;;;;;;21.37;69.76;100609.61;106945;1248;59167;-68
2023/06/28 07:51:19;;;;;;;6.60;2.90;;;;;;;21.50;68.95;100606.91;107279;1247;59043;-67
2023/06/28 07:53:48;;;;;;;7.30;2.60;;;;;;;21.62;68.38;100607.34;106882;1248;72620;-68
2023/06/28 07:56:19;;;;;;;7.40;3.10;;;;;;;21.51;68.31;100608.69;107171;1247;72067;-68
2023/06/28 07:58:48;;;;;;;7.10;2.80;;;;;;;21.47;67.94;100609.05;106869;1255;59588;-69
2023/06/28 08:01:17;;;;;;;6.60;3.30;;;;;;;21.32;68.19;100615.73;106881;1251;63045;-67
2023/06/28 08:03:46;;;;;;;9.40;3.00;;;;;;;21.18;68.66;100617.77;106988;1248;60908;-67
2023/06/28 08:06:16;;;;;;;5.30;2.80;;;;;;;21.29;68.49;100619.70;106944;1246;62104;-64
2023/06/28 08:08:47;;;;;;;5.30;3.00;;;;;;;21.30;67.49;100619.72;107010;1253;72638;-68
2023/06/28 08:11:16;;;;;;;5.40;2.80;;;;;;;21.08;67.19;100621.95;107023;1258;62833;-66
2023/06/28 08:13:45;;;;;;;8.60;3.00;;;;;;;21.05;67.86;100623.33;107042;1245;70412;-69
2023/06/28 08:16:14;;;;;;;5.80;2.80;;;;;;;20.92;67.18;100624.86;107377;1245;73672;-68
2023/06/28 08:18:43;;;;;;;5.60;2.80;;;;;;;20.95;66.95;100616.08;107373;1245;60932;-66
2023/06/28 08:21:14;;;;;;;5.20;2.70;;;;;;;20.83;66.37;100623.67;107416;1243;60688;-67
2023/06/28 08:23:43;;;;;;;7.10;2.90;;;;;;;20.78;65.72;100621.11;107419;1245;62631;-66
2023/06/28 08:26:12;;;;;;;5.10;2.90;;;;;;;20.62;66.31;100623.23;107389;1245;62026;-67
2023/06/28 08:28:41;;;;;;;5.40;2.80;;;;;;;20.58;66.63;100624.48;107281;1241;60339;-68
2023/06/28 08:31:28;;;;;;;11.60;3.10;;;;;;;20.56;67.57;100628.74;107272;1251;74021;-66
2023/06/28 08:33:58;;;;;;;9.20;3.10;;;;;;;20.52;68.13;100633.52;107286;1244;61544;-65
2023/06/28 08:36:29;;;;;;;6.90;3.60;;;;;;;20.53;68.13;100631.63;107236;1244;58434;-66
2023/06/28 08:38:58;;;;;;;8.60;3.40;;;;;;;20.66;67.74;100637.20;107153;1245;69612;-67
2023/06/28 08:41:27;;;;;;;8.10;3.10;;;;;;;20.72;67.57;100636.13;107126;1245;62323;-67
2023/06/28 08:44:01;;;;;;;6.90;2.90;;;;;;;20.68;66.64;100628.10;107146;1244;70434;-67
2023/06/28 08:46:31;;;;;;;7.50;3.30;;;;;;;20.66;66.76;100624.79;107137;1246;73253;-64
2023/06/28 08:49:01;;;;;;;4.50;3.00;;;;;;;20.66;67.04;100627.25;107318;1248;58492;-65
2023/06/28 08:51:32;;;;;;;6.30;2.80;;;;;;;20.66;67.28;100619.68;107255;1245;61116;-64
2023/06/28 08:54:01;;;;;;;6.20;3.00;;;;;;;20.67;66.88;100623.46;107306;1244;72901;-67
2023/06/28 08:56:30;;;;;;;7.80;3.50;;;;;;;20.60;67.75;100618.03;107342;1245;72348;-67
2023/06/28 08:59:00;;;;;;;4.60;3.10;;;;;;;20.65;67.67;100616.58;107114;1248;60435;-65
2023/06/28 09:01:32;;;;;;;5.90;2.80;;;;;;;20.58;68.13;100614.86;107284;1245;62493;-66
2023/06/28 09:04:04;;;;;;;14.80;3.80;;;;;;;20.71;67.77;100619.23;107096;1245;60952;-67
2023/06/28 09:06:34;;;;;;;19.30;12.80;;;;;;;20.77;67.25;100613.29;107362;1254;60740;-67
2023/06/28 09:09:04;;;;;;;8.70;3.80;;;;;;;20.78;67.29;100610.85;107508;1255;62603;-68
2023/06/28 09:11:33;;;;;;;10.20;3.20;;;;;;;20.68;67.26;100608.61;107242;1255;61725;-66
2023/06/28 09:14:02;;;;;;;7.90;3.20;;;;;;;20.76;67.36;100610.27;107313;1243;60302;-66
2023/06/28 09:16:31;;;;;;;9.50;3.50;;;;;;;20.90;67.38;100612.44;107304;1244;74090;-65
2023/06/28 09:19:01;;;;;;;4.70;3.30;;;;;;;20.89;67.26;100610.89;107322;1245;57482;-67
2023/06/28 09:21:31;;;;;;;7.60;4.10;;;;;;;21.02;66.65;100603.92;107295;1245;61331;-65
2023/06/28 09:24:01;;;;;;;7.30;3.30;;;;;;;21.04;67.10;100601.25;107340;1245;62729;-65
2023/06/28 09:26:34;;;;;;;9.10;3.20;;;;;;;21.07;66.94;100598.94;107247;1246;60920;-66
2023/06/28 09:29:10;;;;;;;9.10;3.40;;;;;;;21.19;66.65;100601.86;107310;1245;60121;-65
2023/06/28 09:31:44;;;;;;;7.70;3.30;;;;;;;21.16;66.66;100608.27;107338;1252;73645;-65
2023/06/28 09:34:20;;;;;;;9.70;3.30;;;;;;;21.22;65.94;100614.98;107223;1245;59048;-67
2023/06/28 09:36:56;;;;;;;7.10;3.20;;;;;;;21.18;66.30;100614.91;107360;1245;58241;-65
2023/06/28 09:39:25;;;;;;;8.10;3.20;;;;;;;21.31;66.18;100613.27;107259;1255;61545;-67
2023/06/28 09:41:55;;;;;;;7.00;2.90;;;;;;;21.43;65.99;100617.42;107274;1245;72134;-66
2023/06/28 09:44:29;;;;;;;7.60;2.90;;;;;;;21.48;65.52;100615.67;107151;1249;59590;-66
2023/06/28 09:47:04;;;;;;;7.50;2.90;;;;;;;21.58;64.32;100614.06;107175;1255;64231;-65
2023/06/28 09:49:33;;;;;;;7.20;3.00;;;;;;;21.58;64.47;100609.96;107152;1245;58197;-65
2023/06/28 09:52:06;;;;;;;7.20;3.00;;;;;;;21.63;64.53;100606.95;107172;1245;61217;-65
2023/06/28 09:54:44;;;;;;;5.00;2.50;;;;;;;21.85;64.03;100601.75;107259;1245;73820;-66
2023/06/28 09:57:16;;;;;;;4.50;2.60;;;;;;;22.04;62.98;100596.21;107310;1253;62038;-66
2023/06/28 09:59:45;;;;;;;5.60;2.60;;;;;;;22.32;61.58;100595.81;107328;1243;70561;-65
2023/06/28 10:02:22;;;;;;;4.50;2.60;;;;;;;22.51;61.16;100592.21;107245;1255;73185;-66
2023/06/28 10:04:54;;;;;;;6.30;3.20;;;;;;;22.65;60.20;100586.32;107297;1245;59022;-65
2023/06/28 10:07:25;;;;;;;8.00;2.80;;;;;;;22.65;60.07;100582.77;107288;1247;61997;-66
2023/06/28 10:09:54;;;;;;;5.90;3.00;;;;;;;22.88;58.99;100581.84;107051;1243;74424;-66
2023/06/28 10:12:29;;;;;;;5.30;2.30;;;;;;;22.81;58.42;100580.58;107326;1249;72474;-68
2023/06/28 10:15:10;;;;;;;5.60;2.20;;;;;;;22.72;58.25;100575.31;107151;1241;71292;-67
2023/06/28 10:17:40;;;;;;;8.30;3.00;;;;;;;22.40;58.55;100567.05;107303;1243;63707;-70
2023/06/28 10:20:10;;;;;;;6.30;2.30;;;;;;;22.85;57.06;100554.60;107257;1245;59030;-74
2023/06/28 10:22:39;;;;;;;7.30;2.70;;;;;;;22.95;57.10;100555.34;107309;1245;58943;-66
2023/06/28 10:25:09;;;;;;;6.00;2.50;;;;;;;23.06;57.46;100549.73;107222;1245;62991;-64
2023/06/28 10:27:39;;;;;;;5.50;2.20;;;;;;;23.22;56.53;100545.09;107337;1245;61660;-66
2023/06/28 10:30:09;;;;;;;6.20;2.40;;;;;;;23.20;55.36;100540.66;107311;1245;60975;-70
2023/06/28 10:32:38;;;;;;;6.80;2.30;;;;;;;23.74;55.04;100540.80;107187;1244;64200;-66
2023/06/28 10:35:08;;;;;;;4.20;2.10;;;;;;;24.04;54.03;100543.17;107247;1245;60426;-67
2023/06/28 10:37:38;;;;;;;11.20;2.60;;;;;;;24.15;53.86;100537.68;109569;1245;57400;-66
2023/06/28 10:40:09;;;;;;;4.00;2.10;;;;;;;24.32;53.77;100540.78;109593;1241;62925;-66
2023/06/28 10:42:39;;;;;;;3.90;2.20;;;;;;;24.78;51.72;100539.15;109616;1241;71430;-66
2023/06/28 10:45:09;;;;;;;4.40;2.10;;;;;;;24.85;51.27;100534.32;109514;1241;70835;-67
2023/06/28 10:47:53;;;;;;;10.90;2.50;;;;;;;25.03;49.85;100528.09;109529;1244;63051;-66
2023/06/28 10:50:23;;;;;;;4.20;1.90;;;;;;;25.23;50.66;100519.64;109048;1245;62023;-66
2023/06/28 10:52:55;;;;;;;7.70;2.00;;;;;;;25.32;48.91;100514.10;107351;1255;57504;-65
2023/06/28 10:55:33;;;;;;;5.70;2.10;;;;;;;25.26;49.10;100511.81;107253;1255;63376;-65
2023/06/28 10:58:07;;;;;;;4.50;2.50;;;;;;;24.99;48.94;100505.70;107280;1244;71324;-65
2023/06/28 11:00:49;;;;;;;7.60;2.70;;;;;;;24.49;49.81;100504.65;107316;1249;60772;-66
2023/06/28 11:03:19;;;;;;;4.80;2.40;;;;;;;24.58;50.35;100502.69;107354;1255;71395;-65
2023/06/28 11:05:48;;;;;;;5.40;2.00;;;;;;;24.30;51.66;100506.80;107364;1255;57504;-65
2023/06/28 11:08:18;;;;;;;6.40;2.10;;;;;;;24.51;50.85;100506.21;107312;1244;59515;-64
2023/06/28 11:10:54;;;;;;;5.10;2.40;;;;;;;24.65;50.45;100511.30;107191;1245;73600;-68
2023/06/28 11:13:45;;;;;;;3.90;2.20;;;;;;;24.64;50.48;100508.23;107195;1255;61488;-64
2023/06/28 11:16:20;;;;;;;5.40;2.20;;;;;;;24.78;50.23;100510.29;107352;1241;70509;-64
2023/06/28 11:18:51;;;;;;;4.20;2.30;;;;;;;25.02;49.81;100511.98;107268;1253;63620;-60
2023/06/28 11:21:25;;;;;;;4.60;2.30;;;;;;;24.97;48.67;100507.75;107069;1245;58191;-63
2023/06/28 11:23:56;;;;;;;5.80;2.20;;;;;;;24.88;49.06;100509.49;107198;1245;59125;-64
2023/06/28 11:26:37;;;;;;;4.60;2.00;;;;;;;25.11;49.00;100510.97;107088;1246;72608;-66